DTW weather

Public forecast

Using degrees Fahrenheit for public forecast. Weather courtesy of forecast.io.

Current aviation weather report (METAR) for Detroit Metropolitan Wayne County Airport

Retrieved 2020/08/13 01:53 UTC (33 minutes ago):

KDTW 130153Z 00000KT 10SM FEW250 23/13 A3011 RMK AO2 SLP193 T02330133

Aviation forecast (TAF) for Detroit Metropolitan Wayne County Airport

Retrieved 2020-08-13 00:22 UTC (2 hours ago):

TAF KDTW 122320Z 1300/1406 12005KT P6SM SKC FM130600 02003KT P6SM SKC FM131500 06008KT P6SM SCT250